sensor_id;sensor_type;location;lat;lon;timestamp;pressure;altitude;pressure_sealevel;temperature;humidity
55990;BME280;41875;55.806;38.082;2023-04-26T00:00:04;98066.47;;;12.34;75.30
55990;BME280;41875;55.806;38.082;2023-04-26T00:02:35;98056.03;;;12.39;75.20
55990;BME280;41875;55.806;38.082;2023-04-26T00:05:04;98042.34;;;12.42;75.54
55990;BME280;41875;55.806;38.082;2023-04-26T00:07:37;98034.81;;;12.26;75.72
55990;BME280;41875;55.806;38.082;2023-04-26T00:10:06;98044.22;;;12.15;76.42
55990;BME280;41875;55.806;38.082;2023-04-26T00:12:34;98038.50;;;12.18;76.23
55990;BME280;41875;55.806;38.082;2023-04-26T00:15:07;98033.22;;;12.11;76.60
55990;BME280;41875;55.806;38.082;2023-04-26T00:17:39;98034.44;;;12.09;76.77
55990;BME280;41875;55.806;38.082;2023-04-26T00:20:10;98024.44;;;12.24;75.70
55990;BME280;41875;55.806;38.082;2023-04-26T00:22:41;98008.09;;;12.00;76.75
55990;BME280;41875;55.806;38.082;2023-04-26T00:25:09;98014.84;;;12.16;76.59
55990;BME280;41875;55.806;38.082;2023-04-26T00:27:38;98010.75;;;12.07;76.79
55990;BME280;41875;55.806;38.082;2023-04-26T00:30:07;98019.94;;;12.04;77.24
55990;BME280;41875;55.806;38.082;2023-04-26T00:32:36;98023.81;;;12.15;76.50
55990;BME280;41875;55.806;38.082;2023-04-26T00:35:07;98017.88;;;12.27;76.32
55990;BME280;41875;55.806;38.082;2023-04-26T00:37:35;98011.31;;;12.29;76.22
55990;BME280;41875;55.806;38.082;2023-04-26T00:40:07;98009.31;;;11.78;78.17
55990;BME280;41875;55.806;38.082;2023-04-26T00:42:36;98007.28;;;12.13;77.56
55990;BME280;41875;55.806;38.082;2023-04-26T00:45:06;98000.53;;;12.11;77.14
55990;BME280;41875;55.806;38.082;2023-04-26T00:47:34;98012.38;;;12.15;77.71
55990;BME280;41875;55.806;38.082;2023-04-26T00:50:03;98004.22;;;12.23;77.19
55990;BME280;41875;55.806;38.082;2023-04-26T00:52:34;98001.34;;;12.18;77.19
55990;BME280;41875;55.806;38.082;2023-04-26T00:55:03;98000.06;;;12.34;77.02
55990;BME280;41875;55.806;38.082;2023-04-26T00:57:34;97991.53;;;12.32;76.77
55990;BME280;41875;55.806;38.082;2023-04-26T01:00:04;97992.75;;;12.23;77.55
55990;BME280;41875;55.806;38.082;2023-04-26T01:02:32;97978.50;;;12.10;78.21
55990;BME280;41875;55.806;38.082;2023-04-26T01:05:01;97981.53;;;12.20;77.64
55990;BME280;41875;55.806;38.082;2023-04-26T01:07:30;97981.34;;;12.09;77.92
55990;BME280;41875;55.806;38.082;2023-04-26T01:10:01;97982.34;;;12.21;77.92
55990;BME280;41875;55.806;38.082;2023-04-26T01:12:31;97976.19;;;12.34;76.97
55990;BME280;41875;55.806;38.082;2023-04-26T01:15:01;97978.72;;;12.09;78.03
55990;BME280;41875;55.806;38.082;2023-04-26T01:17:31;97964.41;;;12.16;78.40
55990;BME280;41875;55.806;38.082;2023-04-26T01:20:00;97964.41;;;12.10;78.24
55990;BME280;41875;55.806;38.082;2023-04-26T01:22:33;97953.78;;;12.03;78.94
55990;BME280;41875;55.806;38.082;2023-04-26T01:25:03;97954.19;;;12.13;78.11
55990;BME280;41875;55.806;38.082;2023-04-26T01:27:35;97961.94;;;12.08;78.27
55990;BME280;41875;55.806;38.082;2023-04-26T01:30:04;97939.66;;;12.23;77.69
55990;BME280;41875;55.806;38.082;2023-04-26T01:32:33;97954.16;;;12.27;77.39
55990;BME280;41875;55.806;38.082;2023-04-26T01:35:01;97945.72;;;12.43;77.47
55990;BME280;41875;55.806;38.082;2023-04-26T01:37:32;97942.50;;;12.34;77.22
55990;BME280;41875;55.806;38.082;2023-04-26T01:40:01;97948.00;;;12.40;77.12
55990;BME280;41875;55.806;38.082;2023-04-26T01:42:32;97924.94;;;12.33;77.07
55990;BME280;41875;55.806;38.082;2023-04-26T01:45:00;97937.03;;;12.16;77.85
55990;BME280;41875;55.806;38.082;2023-04-26T01:47:49;97938.25;;;12.20;78.55
55990;BME280;41875;55.806;38.082;2023-04-26T01:50:18;97929.88;;;12.23;78.33
55990;BME280;41875;55.806;38.082;2023-04-26T01:52:48;97916.78;;;12.22;78.19
55990;BME280;41875;55.806;38.082;2023-04-26T01:55:17;97918.63;;;12.21;78.49
55990;BME280;41875;55.806;38.082;2023-04-26T01:57:46;97924.41;;;12.04;79.18
55990;BME280;41875;55.806;38.082;2023-04-26T02:00:15;97922.31;;;12.20;78.57
55990;BME280;41875;55.806;38.082;2023-04-26T02:02:47;97921.09;;;12.16;78.79
55990;BME280;41875;55.806;38.082;2023-04-26T02:05:16;97912.69;;;12.26;78.57
55990;BME280;41875;55.806;38.082;2023-04-26T02:07:45;97906.22;;;12.01;79.26
55990;BME280;41875;55.806;38.082;2023-04-26T02:10:14;97907.81;;;12.23;78.35
55990;BME280;41875;55.806;38.082;2023-04-26T02:12:43;97909.69;;;12.09;78.98
55990;BME280;41875;55.806;38.082;2023-04-26T02:15:12;97908.06;;;12.08;79.34
55990;BME280;41875;55.806;38.082;2023-04-26T02:17:41;97913.75;;;12.18;79.69
55990;BME280;41875;55.806;38.082;2023-04-26T02:20:10;97897.38;;;12.28;78.59
55990;BME280;41875;55.806;38.082;2023-04-26T02:22:39;97878.66;;;12.02;78.93
55990;BME280;41875;55.806;38.082;2023-04-26T02:25:07;97898.59;;;12.32;78.32
55990;BME280;41875;55.806;38.082;2023-04-26T02:27:39;97887.94;;;12.39;78.07
55990;BME280;41875;55.806;38.082;2023-04-26T02:30:08;97886.28;;;12.44;77.76
55990;BME280;41875;55.806;38.082;2023-04-26T02:32:36;97893.31;;;12.18;78.92
55990;BME280;41875;55.806;38.082;2023-04-26T02:35:05;97881.84;;;12.31;78.32
55990;BME280;41875;55.806;38.082;2023-04-26T02:37:34;97886.78;;;12.21;78.90
55990;BME280;41875;55.806;38.082;2023-04-26T02:40:03;97883.81;;;12.43;78.37
55990;BME280;41875;55.806;38.082;2023-04-26T02:42:32;97881.88;;;12.18;78.86
55990;BME280;41875;55.806;38.082;2023-04-26T02:45:02;97877.31;;;12.39;78.07
55990;BME280;41875;55.806;38.082;2023-04-26T02:47:31;97883.56;;;12.06;79.27
55990;BME280;41875;55.806;38.082;2023-04-26T02:49:59;97881.81;;;12.38;78.61
55990;BME280;41875;55.806;38.082;2023-04-26T02:52:30;97880.53;;;12.54;77.69
55990;BME280;41875;55.806;38.082;2023-04-26T02:54:58;97883.31;;;12.14;79.63
55990;BME280;41875;55.806;38.082;2023-04-26T02:57:28;97879.41;;;12.30;78.84
55990;BME280;41875;55.806;38.082;2023-04-26T02:59:57;97882.16;;;12.55;77.75
55990;BME280;41875;55.806;38.082;2023-04-26T03:02:28;97871.97;;;12.45;77.89
55990;BME280;41875;55.806;38.082;2023-04-26T03:04:57;97876.31;;;12.40;78.19
55990;BME280;41875;55.806;38.082;2023-04-26T03:07:26;97877.72;;;12.42;78.52
55990;BME280;41875;55.806;38.082;2023-04-26T03:09:54;97872.59;;;12.47;78.24
55990;BME280;41875;55.806;38.082;2023-04-26T03:12:22;97860.66;;;12.63;77.21
55990;BME280;41875;55.806;38.082;2023-04-26T03:14:51;97865.19;;;12.49;78.21
55990;BME280;41875;55.806;38.082;2023-04-26T03:17:23;97853.09;;;12.60;77.56
55990;BME280;41875;55.806;38.082;2023-04-26T03:19:54;97860.50;;;12.52;78.45
55990;BME280;41875;55.806;38.082;2023-04-26T03:22:23;97852.28;;;12.60;77.97
55990;BME280;41875;55.806;38.082;2023-04-26T03:24:51;97854.88;;;12.73;77.12
55990;BME280;41875;55.806;38.082;2023-04-26T03:27:20;97849.91;;;13.09;75.97
55990;BME280;41875;55.806;38.082;2023-04-26T03:29:48;97849.13;;;12.76;77.21
55990;BME280;41875;55.806;38.082;2023-04-26T03:32:17;97851.91;;;12.88;76.76
55990;BME280;41875;55.806;38.082;2023-04-26T03:34:46;97852.72;;;12.89;77.16
55990;BME280;41875;55.806;38.082;2023-04-26T03:37:17;97846.34;;;12.96;76.72
55990;BME280;41875;55.806;38.082;2023-04-26T03:39:53;97837.06;;;13.06;76.20
55990;BME280;41875;55.806;38.082;2023-04-26T03:42:22;97853.53;;;12.89;76.96
55990;BME280;41875;55.806;38.082;2023-04-26T03:44:51;97847.69;;;13.06;76.00
55990;BME280;41875;55.806;38.082;2023-04-26T03:47:21;97845.03;;;13.31;75.51
55990;BME280;41875;55.806;38.082;2023-04-26T03:49:50;97841.94;;;13.09;76.25
55990;BME280;41875;55.806;38.082;2023-04-26T03:52:20;97838.31;;;13.03;76.66
55990;BME280;41875;55.806;38.082;2023-04-26T03:54:50;97831.09;;;13.10;76.06
55990;BME280;41875;55.806;38.082;2023-04-26T03:57:19;97818.25;;;13.07;76.23
55990;BME280;41875;55.806;38.082;2023-04-26T03:59:47;97841.91;;;12.84;77.78
55990;BME280;41875;55.806;38.082;2023-04-26T04:02:16;97828.97;;;13.19;77.38
55990;BME280;41875;55.806;38.082;2023-04-26T04:04:44;97831.09;;;13.10;76.66
55990;BME280;41875;55.806;38.082;2023-04-26T04:07:13;97831.19;;;13.22;76.20
55990;BME280;41875;55.806;38.082;2023-04-26T04:09:44;97832.56;;;13.06;76.85
55990;BME280;41875;55.806;38.082;2023-04-26T04:12:12;97828.72;;;13.02;77.32
55990;BME280;41875;55.806;38.082;2023-04-26T04:14:42;97831.09;;;13.10;76.33
55990;BME280;41875;55.806;38.082;2023-04-26T04:17:10;97826.66;;;13.04;77.23
55990;BME280;41875;55.806;38.082;2023-04-26T04:19:39;97823.00;;;13.24;76.06
55990;BME280;41875;55.806;38.082;2023-04-26T04:22:08;97828.44;;;13.10;77.09
55990;BME280;41875;55.806;38.082;2023-04-26T04:24:36;97826.16;;;13.14;76.90
55990;BME280;41875;55.806;38.082;2023-04-26T04:27:07;97815.25;;;12.97;77.33
55990;BME280;41875;55.806;38.082;2023-04-26T04:29:37;97821.72;;;13.08;77.44
55990;BME280;41875;55.806;38.082;2023-04-26T04:32:07;97815.97;;;13.11;76.56
55990;BME280;41875;55.806;38.082;2023-04-26T04:34:36;97825.56;;;13.12;76.72
55990;BME280;41875;55.806;38.082;2023-04-26T04:37:05;97826.84;;;13.28;77.08
55990;BME280;41875;55.806;38.082;2023-04-26T04:39:34;97812.25;;;13.37;75.67
55990;BME280;41875;55.806;38.082;2023-04-26T04:42:08;97819.97;;;13.20;76.79
55990;BME280;41875;55.806;38.082;2023-04-26T04:44:38;97820.78;;;13.21;76.91
55990;BME280;41875;55.806;38.082;2023-04-26T04:47:07;97818.88;;;13.28;76.90
55990;BME280;41875;55.806;38.082;2023-04-26T04:49:36;97821.09;;;13.31;76.38
55990;BME280;41875;55.806;38.082;2023-04-26T04:52:04;97818.50;;;13.24;76.99
55990;BME280;41875;55.806;38.082;2023-04-26T04:54:33;97821.06;;;13.13;77.51
55990;BME280;41875;55.806;38.082;2023-04-26T04:57:02;97821.53;;;13.28;76.37
55990;BME280;41875;55.806;38.082;2023-04-26T04:59:32;97800.31;;;13.21;77.01
55990;BME280;41875;55.806;38.082;2023-04-26T05:02:01;97827.34;;;13.18;76.94
55990;BME280;41875;55.806;38.082;2023-04-26T05:04:30;97815.00;;;13.24;76.82
55990;BME280;41875;55.806;38.082;2023-04-26T05:07:01;97811.94;;;13.52;76.24
55990;BME280;41875;55.806;38.082;2023-04-26T05:09:30;97811.66;;;13.35;76.90
55990;BME280;41875;55.806;38.082;2023-04-26T05:11:58;97821.47;;;13.60;76.00
55990;BME280;41875;55.806;38.082;2023-04-26T05:14:29;97820.03;;;13.14;77.93
55990;BME280;41875;55.806;38.082;2023-04-26T05:16:59;97818.63;;;13.36;77.60
55990;BME280;41875;55.806;38.082;2023-04-26T05:19:27;97827.09;;;13.52;76.93
55990;BME280;41875;55.806;38.082;2023-04-26T05:21:56;97823.06;;;13.43;76.98
55990;BME280;41875;55.806;38.082;2023-04-26T05:24:28;97812.03;;;13.39;77.53
55990;BME280;41875;55.806;38.082;2023-04-26T05:26:57;97800.34;;;13.84;75.62
55990;BME280;41875;55.806;38.082;2023-04-26T05:29:32;97815.09;;;13.43;77.07
55990;BME280;41875;55.806;38.082;2023-04-26T05:32:02;97811.75;;;13.47;76.33
55990;BME280;41875;55.806;38.082;2023-04-26T05:34:51;97812.75;;;13.53;75.74
55990;BME280;41875;55.806;38.082;2023-04-26T05:37:19;97805.50;;;13.35;77.42
55990;BME280;41875;55.806;38.082;2023-04-26T05:39:48;97814.69;;;13.83;75.46
55990;BME280;41875;55.806;38.082;2023-04-26T05:42:16;97818.72;;;13.48;76.12
55990;BME280;41875;55.806;38.082;2023-04-26T05:44:45;97816.09;;;13.85;75.47
55990;BME280;41875;55.806;38.082;2023-04-26T05:47:16;97811.34;;;13.69;75.86
55990;BME280;41875;55.806;38.082;2023-04-26T05:49:45;97817.63;;;13.93;75.50
55990;BME280;41875;55.806;38.082;2023-04-26T05:52:13;97810.88;;;14.28;74.04
55990;BME280;41875;55.806;38.082;2023-04-26T05:54:42;97814.38;;;13.91;75.21
55990;BME280;41875;55.806;38.082;2023-04-26T05:57:11;97809.56;;;14.00;75.04
55990;BME280;41875;55.806;38.082;2023-04-26T05:59:40;97817.09;;;14.22;73.72
55990;BME280;41875;55.806;38.082;2023-04-26T06:02:08;97814.09;;;13.81;74.69
55990;BME280;41875;55.806;38.082;2023-04-26T06:04:39;97817.19;;;13.96;74.84
55990;BME280;41875;55.806;38.082;2023-04-26T06:07:11;97823.25;;;13.66;76.19
55990;BME280;41875;55.806;38.082;2023-04-26T06:09:40;97816.16;;;13.79;75.46
55990;BME280;41875;55.806;38.082;2023-04-26T06:12:08;97813.50;;;13.97;75.23
55990;BME280;41875;55.806;38.082;2023-04-26T06:14:40;97815.78;;;13.94;75.29
55990;BME280;41875;55.806;38.082;2023-04-26T06:17:13;97815.47;;;13.65;76.13
55990;BME280;41875;55.806;38.082;2023-04-26T06:19:44;97818.91;;;13.72;76.26
55990;BME280;41875;55.806;38.082;2023-04-26T06:22:12;97821.69;;;13.59;76.89
55990;BME280;41875;55.806;38.082;2023-04-26T06:24:41;97827.28;;;13.50;77.29
55990;BME280;41875;55.806;38.082;2023-04-26T06:27:09;97837.28;;;13.74;75.97
55990;BME280;41875;55.806;38.082;2023-04-26T06:29:42;97827.34;;;13.87;75.70
55990;BME280;41875;55.806;38.082;2023-04-26T06:32:11;97833.28;;;14.20;74.28
55990;BME280;41875;55.806;38.082;2023-04-26T06:34:39;97824.72;;;14.18;74.32
55990;BME280;41875;55.806;38.082;2023-04-26T06:37:11;97829.53;;;14.09;74.28
55990;BME280;41875;55.806;38.082;2023-04-26T06:39:42;97832.09;;;14.16;74.79
55990;BME280;41875;55.806;38.082;2023-04-26T06:42:11;97825.31;;;14.01;74.93
55990;BME280;41875;55.806;38.082;2023-04-26T06:45:11;97830.03;;;13.99;75.39
55990;BME280;41875;55.806;38.082;2023-04-26T06:47:40;97820.75;;;14.09;75.08
55990;BME280;41875;55.806;38.082;2023-04-26T06:50:10;97827.47;;;14.11;74.92
55990;BME280;41875;55.806;38.082;2023-04-26T06:52:39;97824.28;;;14.21;74.29
55990;BME280;41875;55.806;38.082;2023-04-26T06:55:09;97825.03;;;14.40;73.72
55990;BME280;41875;55.806;38.082;2023-04-26T06:57:37;97840.53;;;14.31;74.30
55990;BME280;41875;55.806;38.082;2023-04-26T07:00:07;97825.72;;;14.36;74.17
55990;BME280;41875;55.806;38.082;2023-04-26T07:02:36;97835.94;;;14.39;73.91
55990;BME280;41875;55.806;38.082;2023-04-26T07:05:05;97842.56;;;14.48;75.26
55990;BME280;41875;55.806;38.082;2023-04-26T07:07:34;97838.78;;;14.25;74.59
55990;BME280;41875;55.806;38.082;2023-04-26T07:10:05;97843.38;;;13.81;75.81
55990;BME280;41875;55.806;38.082;2023-04-26T07:12:34;97838.41;;;14.03;75.33
55990;BME280;41875;55.806;38.082;2023-04-26T07:15:03;97842.88;;;13.91;75.69
55990;BME280;41875;55.806;38.082;2023-04-26T07:17:32;97844.97;;;14.00;75.30
55990;BME280;41875;55.806;38.082;2023-04-26T07:20:01;97845.41;;;14.16;74.73
55990;BME280;41875;55.806;38.082;2023-04-26T07:22:29;97844.22;;;14.30;74.88
55990;BME280;41875;55.806;38.082;2023-04-26T07:24:58;97851.16;;;14.50;73.25
55990;BME280;41875;55.806;38.082;2023-04-26T07:27:29;97845.28;;;14.11;74.83
55990;BME280;41875;55.806;38.082;2023-04-26T07:29:59;97850.38;;;14.31;73.79
55990;BME280;41875;55.806;38.082;2023-04-26T07:32:28;97856.88;;;14.35;73.26
55990;BME280;41875;55.806;38.082;2023-04-26T07:34:58;97859.31;;;14.37;73.95
55990;BME280;41875;55.806;38.082;2023-04-26T07:37:28;97854.44;;;14.33;73.19
55990;BME280;41875;55.806;38.082;2023-04-26T07:39:57;97844.78;;;14.21;73.97
55990;BME280;41875;55.806;38.082;2023-04-26T07:42:25;97858.03;;;14.39;73.24
55990;BME280;41875;55.806;38.082;2023-04-26T07:44:55;97866.94;;;14.33;73.12
55990;BME280;41875;55.806;38.082;2023-04-26T07:47:24;97849.13;;;14.15;74.36
55990;BME280;41875;55.806;38.082;2023-04-26T07:49:52;97861.13;;;14.06;74.64
55990;BME280;41875;55.806;38.082;2023-04-26T07:52:21;97862.22;;;14.35;73.18
55990;BME280;41875;55.806;38.082;2023-04-26T07:54:50;97854.50;;;14.27;73.47
55990;BME280;41875;55.806;38.082;2023-04-26T07:57:18;97864.56;;;14.43;73.00
55990;BME280;41875;55.806;38.082;2023-04-26T07:59:46;97877.69;;;14.75;72.02
55990;BME280;41875;55.806;38.082;2023-04-26T08:02:16;97856.97;;;14.77;71.55
55990;BME280;41875;55.806;38.082;2023-04-26T08:04:50;97871.91;;;14.78;72.12
55990;BME280;41875;55.806;38.082;2023-04-26T08:07:21;97868.63;;;14.46;72.86
55990;BME280;41875;55.806;38.082;2023-04-26T08:09:49;97871.19;;;14.71;72.08
55990;BME280;41875;55.806;38.082;2023-04-26T08:12:18;97878.28;;;14.77;70.99
55990;BME280;41875;55.806;38.082;2023-04-26T08:14:46;97872.47;;;14.69;72.32
55990;BME280;41875;55.806;38.082;2023-04-26T08:17:16;97874.44;;;14.24;73.17
55990;BME280;41875;55.806;38.082;2023-04-26T08:19:45;97875.97;;;13.95;74.59
55990;BME280;41875;55.806;38.082;2023-04-26T08:22:13;97875.75;;;14.15;74.42
55990;BME280;41875;55.806;38.082;2023-04-26T08:24:46;97881.31;;;14.13;74.32
55990;BME280;41875;55.806;38.082;2023-04-26T08:27:16;97876.06;;;14.25;73.38
55990;BME280;41875;55.806;38.082;2023-04-26T08:29:44;97890.75;;;14.28;74.63
55990;BME280;41875;55.806;38.082;2023-04-26T08:32:13;97896.84;;;14.16;73.52
55990;BME280;41875;55.806;38.082;2023-04-26T08:34:43;97882.34;;;14.31;73.09
55990;BME280;41875;55.806;38.082;2023-04-26T08:37:13;97897.28;;;14.13;73.77
55990;BME280;41875;55.806;38.082;2023-04-26T08:39:42;97890.09;;;14.32;73.71
55990;BME280;41875;55.806;38.082;2023-04-26T08:42:13;97893.44;;;14.09;74.04
55990;BME280;41875;55.806;38.082;2023-04-26T08:44:43;97877.88;;;14.43;72.42
55990;BME280;41875;55.806;38.082;2023-04-26T08:47:15;97890.53;;;14.29;73.34
55990;BME280;41875;55.806;38.082;2023-04-26T08:49:46;97896.63;;;14.86;71.28
55990;BME280;41875;55.806;38.082;2023-04-26T08:52:20;97895.41;;;15.12;69.46
55990;BME280;41875;55.806;38.082;2023-04-26T08:54:49;97885.84;;;14.92;69.86
55990;BME280;41875;55.806;38.082;2023-04-26T08:57:20;97891.47;;;15.15;69.10
55990;BME280;41875;55.806;38.082;2023-04-26T08:59:49;97887.13;;;15.80;67.96
55990;BME280;41875;55.806;38.082;2023-04-26T09:02:20;97877.34;;;15.38;68.10
55990;BME280;41875;55.806;38.082;2023-04-26T09:04:50;97895.25;;;15.49;68.07
55990;BME280;41875;55.806;38.082;2023-04-26T09:07:21;97893.63;;;16.20;66.05
55990;BME280;41875;55.806;38.082;2023-04-26T09:09:50;97879.97;;;16.74;64.05
55990;BME280;41875;55.806;38.082;2023-04-26T09:12:18;97902.81;;;16.82;66.45
55990;BME280;41875;55.806;38.082;2023-04-26T09:14:47;97897.56;;;16.58;64.84
55990;BME280;41875;55.806;38.082;2023-04-26T09:17:34;97894.53;;;16.25;68.21
55990;BME280;41875;55.806;38.082;2023-04-26T09:20:21;97899.09;;;16.83;63.96
55990;BME280;41875;55.806;38.082;2023-04-26T09:22:51;97900.31;;;16.34;64.76
55990;BME280;41875;55.806;38.082;2023-04-26T09:25:27;97904.53;;;15.82;65.61
55990;BME280;41875;55.806;38.082;2023-04-26T09:27:56;97913.53;;;15.88;65.65
55990;BME280;41875;55.806;38.082;2023-04-26T09:30:26;97920.56;;;15.70;65.71
55990;BME280;41875;55.806;38.082;2023-04-26T09:32:56;97920.31;;;15.84;65.50
55990;BME280;41875;55.806;38.082;2023-04-26T09:35:29;97907.47;;;15.93;64.48
55990;BME280;41875;55.806;38.082;2023-04-26T09:37:59;97916.63;;;16.09;64.33
55990;BME280;41875;55.806;38.082;2023-04-26T09:40:39;97921.78;;;16.80;62.19
55990;BME280;41875;55.806;38.082;2023-04-26T09:43:09;97921.88;;;16.97;61.92
55990;BME280;41875;55.806;38.082;2023-04-26T09:45:44;97934.06;;;17.22;61.39
55990;BME280;41875;55.806;38.082;2023-04-26T09:48:14;97913.72;;;16.51;62.59
55990;BME280;41875;55.806;38.082;2023-04-26T09:50:44;97921.91;;;15.37;64.86
55990;BME280;41875;55.806;38.082;2023-04-26T09:53:29;97926.34;;;15.55;68.37
55990;BME280;41875;55.806;38.082;2023-04-26T09:56:08;97932.34;;;14.66;70.33
55990;BME280;41875;55.806;38.082;2023-04-26T09:58:39;97938.25;;;15.29;68.72
55990;BME280;41875;55.806;38.082;2023-04-26T10:01:07;97935.19;;;15.14;67.52
55990;BME280;41875;55.806;38.082;2023-04-26T10:03:38;97945.72;;;15.51;65.47
55990;BME280;41875;55.806;38.082;2023-04-26T10:06:09;97938.19;;;15.60;65.18
55990;BME280;41875;55.806;38.082;2023-04-26T10:08:38;97941.56;;;15.55;65.47
55990;BME280;41875;55.806;38.082;2023-04-26T10:11:06;97947.41;;;15.99;66.42
55990;BME280;41875;55.806;38.082;2023-04-26T10:13:36;97951.06;;;15.75;66.36
55990;BME280;41875;55.806;38.082;2023-04-26T10:16:06;97949.00;;;15.65;65.73
55990;BME280;41875;55.806;38.082;2023-04-26T10:18:36;97954.63;;;15.02;68.28
55990;BME280;41875;55.806;38.082;2023-04-26T10:21:06;97954.53;;;14.78;69.66
55990;BME280;41875;55.806;38.082;2023-04-26T10:23:38;97950.59;;;14.81;67.75
55990;BME280;41875;55.806;38.082;2023-04-26T10:26:48;97962.28;;;16.07;64.73
55990;BME280;41875;55.806;38.082;2023-04-26T10:29:18;97955.59;;;15.74;64.08
55990;BME280;41875;55.806;38.082;2023-04-26T10:32:06;97951.28;;;15.61;66.04
55990;BME280;41875;55.806;38.082;2023-04-26T10:34:37;97966.63;;;15.78;64.41
55990;BME280;41875;55.806;38.082;2023-04-26T10:37:06;97962.22;;;15.83;63.88
55990;BME280;41875;55.806;38.082;2023-04-26T10:39:37;97970.75;;;16.16;61.16
55990;BME280;41875;55.806;38.082;2023-04-26T10:42:23;97973.75;;;16.08;63.68
55990;BME280;41875;55.806;38.082;2023-04-26T10:44:54;97983.22;;;16.51;61.36
55990;BME280;41875;55.806;38.082;2023-04-26T10:47:28;97996.63;;;17.04;59.31
55990;BME280;41875;55.806;38.082;2023-04-26T10:50:05;98000.94;;;16.28;59.83
55990;BME280;41875;55.806;38.082;2023-04-26T10:52:35;97995.88;;;16.68;59.94
55990;BME280;41875;55.806;38.082;2023-04-26T10:55:05;97978.97;;;16.38;60.98
55990;BME280;41875;55.806;38.082;2023-04-26T10:57:49;97989.88;;;16.49;61.31
55990;BME280;41875;55.806;38.082;2023-04-26T11:00:28;97974.75;;;15.71;62.91
55990;BME280;41875;55.806;38.082;2023-04-26T11:03:03;97992.06;;;15.68;63.80
55990;BME280;41875;55.806;38.082;2023-04-26T11:05:36;97994.25;;;15.60;62.97
55990;BME280;41875;55.806;38.082;2023-04-26T11:08:06;97997.78;;;15.96;61.85
55990;BME280;41875;55.806;38.082;2023-04-26T11:10:37;97997.19;;;16.94;60.06
55990;BME280;41875;55.806;38.082;2023-04-26T11:13:07;98008.31;;;17.44;58.71
55990;BME280;41875;55.806;38.082;2023-04-26T11:15:35;98018.03;;;16.80;58.64
55990;BME280;41875;55.806;38.082;2023-04-26T11:18:04;98010.78;;;16.52;58.37
55990;BME280;41875;55.806;38.082;2023-04-26T11:20:33;98001.97;;;16.04;59.30
55990;BME280;41875;55.806;38.082;2023-04-26T11:23:02;98020.22;;;16.07;59.00
55990;BME280;41875;55.806;38.082;2023-04-26T11:25:30;98001.69;;;15.69;62.22
55990;BME280;41875;55.806;38.082;2023-04-26T11:28:01;98009.19;;;15.49;61.68
55990;BME280;41875;55.806;38.082;2023-04-26T11:30:31;98009.84;;;15.87;61.69
55990;BME280;41875;55.806;38.082;2023-04-26T11:33:00;98021.78;;;15.84;60.89
55990;BME280;41875;55.806;38.082;2023-04-26T11:35:32;98015.63;;;15.72;61.03
55990;BME280;41875;55.806;38.082;2023-04-26T11:38:03;98027.31;;;16.25;60.14
55990;BME280;41875;55.806;38.082;2023-04-26T11:40:32;98028.91;;;16.50;59.03
55990;BME280;41875;55.806;38.082;2023-04-26T11:43:05;98037.97;;;15.59;60.95
55990;BME280;41875;55.806;38.082;2023-04-26T11:45:35;98034.03;;;16.27;56.86
55990;BME280;41875;55.806;38.082;2023-04-26T11:48:06;98030.28;;;16.52;56.97
55990;BME280;41875;55.806;38.082;2023-04-26T11:50:36;98051.75;;;17.05;55.51
55990;BME280;41875;55.806;38.082;2023-04-26T11:53:06;98046.28;;;17.29;54.88
55990;BME280;41875;55.806;38.082;2023-04-26T11:55:35;98040.06;;;16.35;55.71
55990;BME280;41875;55.806;38.082;2023-04-26T11:58:12;98044.28;;;16.30;57.60
55990;BME280;41875;55.806;38.082;2023-04-26T12:00:57;98048.50;;;17.03;55.94
55990;BME280;41875;55.806;38.082;2023-04-26T12:03:31;98045.53;;;16.04;57.30
55990;BME280;41875;55.806;38.082;2023-04-26T12:06:01;98047.97;;;16.06;57.79
55990;BME280;41875;55.806;38.082;2023-04-26T12:08:30;98052.84;;;16.44;57.60
55990;BME280;41875;55.806;38.082;2023-04-26T12:10:59;98046.72;;;15.05;60.82
55990;BME280;41875;55.806;38.082;2023-04-26T12:13:30;98065.41;;;14.61;63.48
55990;BME280;41875;55.806;38.082;2023-04-26T12:15:59;98076.25;;;14.85;63.81
55990;BME280;41875;55.806;38.082;2023-04-26T12:18:33;98066.81;;;14.63;64.83
55990;BME280;41875;55.806;38.082;2023-04-26T12:21:01;98066.56;;;14.90;64.81
55990;BME280;41875;55.806;38.082;2023-04-26T12:23:36;98073.16;;;15.06;64.42
55990;BME280;41875;55.806;38.082;2023-04-26T12:26:05;98069.78;;;15.60;61.98
55990;BME280;41875;55.806;38.082;2023-04-26T12:28:38;98073.78;;;16.24;60.33
55990;BME280;41875;55.806;38.082;2023-04-26T12:31:07;98074.66;;;16.89;58.49
55990;BME280;41875;55.806;38.082;2023-04-26T12:33:36;98077.00;;;17.84;56.64
55990;BME280;41875;55.806;38.082;2023-04-26T12:36:06;98074.63;;;17.88;55.24
55990;BME280;41875;55.806;38.082;2023-04-26T12:38:34;98075.81;;;18.09;54.50
55990;BME280;41875;55.806;38.082;2023-04-26T12:41:03;98065.34;;;17.90;55.44
55990;BME280;41875;55.806;38.082;2023-04-26T12:43:32;98071.06;;;17.65;56.24
55990;BME280;41875;55.806;38.082;2023-04-26T12:46:02;98072.69;;;16.96;57.70
55990;BME280;41875;55.806;38.082;2023-04-26T12:48:30;98063.16;;;16.88;56.59
55990;BME280;41875;55.806;38.082;2023-04-26T12:50:59;98073.66;;;16.42;57.54
55990;BME280;41875;55.806;38.082;2023-04-26T12:53:27;98065.75;;;15.81;58.08
55990;BME280;41875;55.806;38.082;2023-04-26T12:55:56;98082.94;;;16.28;58.11
55990;BME280;41875;55.806;38.082;2023-04-26T12:58:25;98068.91;;;16.33;58.36
55990;BME280;41875;55.806;38.082;2023-04-26T13:00:54;98077.63;;;16.52;57.31
55990;BME280;41875;55.806;38.082;2023-04-26T13:03:24;98081.06;;;16.17;57.79
55990;BME280;41875;55.806;38.082;2023-04-26T13:05:54;98095.13;;;16.12;58.38